createdAt,value
2023-04-13T00:07:07.432Z,83.40
2023-04-13T00:15:15.623Z,83.10
2023-04-13T00:23:21.152Z,83.90
2023-04-13T00:31:29.756Z,83.20
2023-04-13T00:39:35.282Z,82.60
2023-04-13T00:47:46.924Z,82.20
2023-04-13T00:55:53.534Z,82.00
2023-04-13T01:04:01.912Z,82.00
2023-04-13T01:12:14.476Z,81.80
2023-04-13T01:20:23.361Z,81.10
2023-04-13T01:28:33.618Z,81.40
2023-04-13T01:36:41.805Z,81.10
2023-04-13T01:44:51.553Z,80.70
2023-04-13T01:53:00.119Z,80.30
2023-04-13T02:01:10.005Z,80.10
2023-04-13T02:09:15.896Z,80.10
2023-04-13T02:17:25.808Z,79.90
2023-04-13T02:25:31.599Z,80.20
2023-04-13T02:33:40.157Z,80.00
2023-04-13T02:41:45.857Z,79.80
2023-04-13T02:49:59.692Z,79.80
2023-04-13T02:58:12.606Z,79.80
2023-04-13T03:06:26.209Z,80.10
2023-04-13T03:14:36.992Z,80.30
2023-04-13T03:22:48.261Z,82.40
2023-04-13T03:30:53.948Z,83.10
2023-04-13T03:39:02.145Z,83.40
2023-04-13T03:47:12.978Z,84.10
2023-04-13T03:55:21.438Z,83.90
2023-04-13T04:03:29.295Z,85.50
2023-04-13T04:11:41.342Z,84.50
2023-04-13T04:19:48.823Z,83.70
2023-04-13T04:28:02.867Z,83.00
2023-04-13T04:36:10.236Z,82.60
2023-04-13T04:44:25.466Z,82.60
2023-04-13T04:52:33.252Z,81.80
2023-04-13T05:00:43.736Z,81.20
2023-04-13T05:08:53.248Z,80.60
2023-04-13T05:17:01.690Z,79.60
2023-04-13T05:25:13.513Z,79.30
2023-04-13T05:33:22.541Z,79.20
2023-04-13T05:41:34.082Z,77.60
2023-04-13T05:49:42.541Z,76.90
2023-04-13T05:57:49.412Z,77.30
2023-04-13T06:05:58.404Z,75.40
2023-04-13T06:14:03.937Z,75.70
2023-04-13T06:22:12.025Z,71.60
2023-04-13T06:30:19.657Z,69.90
2023-04-13T06:38:31.040Z,69.30
2023-04-13T06:46:42.289Z,67.60
2023-04-13T06:54:54.722Z,65.60
2023-04-13T07:03:14.004Z,63.90
2023-04-13T07:11:23.139Z,62.60
2023-04-13T07:19:28.881Z,59.70
2023-04-13T07:28:12.746Z,60.00
2023-04-13T07:36:21.158Z,62.10
2023-04-13T07:44:29.720Z,60.90
2023-04-13T07:52:38.666Z,65.10
2023-04-13T08:00:44.300Z,62.10
2023-04-13T08:08:53.050Z,60.80
2023-04-13T08:16:58.864Z,61.10
2023-04-13T08:25:08.100Z,61.60
2023-04-13T08:33:13.764Z,61.90
2023-04-13T08:41:24.590Z,61.90
2023-04-13T08:49:35.029Z,60.90
2023-04-13T08:58:15.398Z,61.00
2023-04-13T09:06:27.105Z,58.60
2023-04-13T09:14:38.164Z,56.80
2023-04-13T09:22:44.164Z,55.10
2023-04-13T09:30:52.307Z,56.00
2023-04-13T09:38:59.277Z,55.60
2023-04-13T09:47:08.940Z,56.90
2023-04-13T09:55:19.784Z,56.50
2023-04-13T10:03:28.080Z,53.60
2023-04-13T10:11:34.077Z,55.30
2023-04-13T10:19:46.213Z,54.40
2023-04-13T10:28:07.686Z,53.80
2023-04-13T10:36:15.999Z,52.40
2023-04-13T10:44:21.417Z,52.10
2023-04-13T10:52:29.845Z,46.70
2023-04-13T11:00:44.550Z,41.60
2023-04-13T11:09:03.221Z,37.60
2023-04-13T11:17:11.763Z,30.90
2023-04-13T11:25:20.607Z,28.20
2023-04-13T11:33:30.362Z,26.70
2023-04-13T11:41:43.486Z,26.00
2023-04-13T11:49:50.732Z,27.00
2023-04-13T11:57:59.043Z,28.60
2023-04-13T12:06:05.920Z,29.80
2023-04-13T12:22:52.340Z,27.20
2023-04-13T12:31:10.268Z,26.10
2023-04-13T12:39:15.925Z,25.50
2023-04-13T12:47:26.371Z,24.40
2023-04-13T12:55:32.306Z,25.30
2023-04-13T13:03:40.365Z,25.40
2023-04-13T13:11:45.843Z,25.10
2023-04-13T13:19:54.909Z,29.00
2023-04-13T13:44:35.078Z,44.30
2023-04-13T13:52:59.256Z,46.00
2023-04-13T14:01:10.443Z,45.50
2023-04-13T14:09:19.107Z,45.90
2023-04-13T14:17:24.552Z,45.90
2023-04-13T14:25:32.731Z,47.20
2023-04-13T14:33:38.185Z,48.30
2023-04-13T14:41:47.468Z,49.00
2023-04-13T14:49:52.848Z,49.70
2023-04-13T14:58:01.898Z,49.90
2023-04-13T15:06:08.281Z,50.90
2023-04-13T15:14:16.541Z,52.00
2023-04-13T15:22:21.967Z,53.70
2023-04-13T15:30:31.402Z,53.30
2023-04-13T15:38:36.857Z,53.10
2023-04-13T15:46:44.891Z,55.20
2023-04-13T15:54:50.429Z,54.90
2023-04-13T16:02:59.338Z,54.20
2023-04-13T16:11:05.101Z,54.30
2023-04-13T16:19:13.970Z,54.80
2023-04-13T16:27:19.467Z,55.70
2023-04-13T16:35:27.878Z,56.70
2023-04-13T16:43:33.287Z,57.30
2023-04-13T16:51:41.482Z,57.50
2023-04-13T16:59:47.187Z,57.70
2023-04-13T17:07:55.324Z,57.90
2023-04-13T17:16:01.602Z,58.90
2023-04-13T17:24:10.779Z,59.10
2023-04-13T17:32:16.290Z,58.90
2023-04-13T17:40:24.592Z,58.40
2023-04-13T17:48:30.211Z,58.80
2023-04-13T17:56:38.393Z,58.70
2023-04-13T18:04:43.968Z,59.20
2023-04-13T18:12:52.861Z,59.40
2023-04-13T18:20:58.240Z,59.90
2023-04-13T18:29:06.467Z,60.20
2023-04-13T18:37:11.960Z,61.30
2023-04-13T18:45:20.323Z,61.00
2023-04-13T18:53:25.743Z,61.80
2023-04-13T19:01:35.929Z,62.90
2023-04-13T19:09:44.909Z,63.00
2023-04-13T19:17:53.346Z,63.10
2023-04-13T19:25:58.884Z,64.00
2023-04-13T19:34:07.877Z,65.00
2023-04-13T19:42:13.315Z,66.30
2023-04-13T19:50:22.675Z,67.00
2023-04-13T19:58:29.164Z,67.80
2023-04-13T20:06:37.383Z,69.10
2023-04-13T20:14:43.170Z,69.20
2023-04-13T20:22:51.338Z,71.10
2023-04-13T20:30:56.786Z,69.90
2023-04-13T20:39:05.103Z,69.40
2023-04-13T20:47:13.611Z,69.90
2023-04-13T20:55:22.184Z,69.60
2023-04-13T21:03:32.253Z,70.10
2023-04-13T21:11:41.080Z,70.40
2023-04-13T21:19:46.577Z,71.10
2023-04-13T21:27:54.595Z,71.60
2023-04-13T21:36:51.452Z,72.90
2023-04-13T21:44:30.059Z,70.70
2023-04-13T21:52:35.861Z,69.80
2023-04-13T22:00:43.997Z,69.60
2023-04-13T22:08:49.475Z,69.20
2023-04-13T22:16:59.614Z,69.20
2023-04-13T22:25:05.071Z,69.10
2023-04-13T22:33:13.188Z,68.90
2023-04-13T22:41:18.950Z,68.60
2023-04-13T22:49:27.366Z,69.90
2023-04-13T22:57:32.816Z,71.10
2023-04-13T23:05:40.875Z,71.90
2023-04-13T23:13:47.002Z,71.20
2023-04-13T23:21:55.068Z,71.00
2023-04-13T23:30:00.662Z,70.60
2023-04-13T23:38:08.716Z,69.50
2023-04-13T23:46:14.190Z,69.10
2023-04-13T23:54:22.367Z,69.00
